sensor_id;sensor_type;location;lat;lon;timestamp;P1;durP1;ratioP1;P2;durP2;ratioP2
79487;SDS011;68949;53.176;18.088;2024-03-02T00:00:40;59.70;;;25.60;;
79487;SDS011;68949;53.176;18.088;2024-03-02T00:03:27;67.00;;;29.10;;
79487;SDS011;68949;53.176;18.088;2024-03-02T00:05:53;64.10;;;28.00;;
79487;SDS011;68949;53.176;18.088;2024-03-02T00:08:25;67.40;;;28.30;;
79487;SDS011;68949;53.176;18.088;2024-03-02T00:10:58;66.00;;;28.50;;
79487;SDS011;68949;53.176;18.088;2024-03-02T00:13:26;60.20;;;26.90;;
79487;SDS011;68949;53.176;18.088;2024-03-02T00:15:55;62.60;;;25.70;;
79487;SDS011;68949;53.176;18.088;2024-03-02T00:18:34;61.70;;;26.80;;
79487;SDS011;68949;53.176;18.088;2024-03-02T00:21:01;56.60;;;24.10;;
79487;SDS011;68949;53.176;18.088;2024-03-02T00:23:30;62.70;;;26.20;;
79487;SDS011;68949;53.176;18.088;2024-03-02T00:25:59;59.90;;;25.30;;
79487;SDS011;68949;53.176;18.088;2024-03-02T00:28:30;63.70;;;24.90;;
79487;SDS011;68949;53.176;18.088;2024-03-02T00:31:12;58.50;;;25.80;;
79487;SDS011;68949;53.176;18.088;2024-03-02T00:33:47;65.50;;;29.50;;
79487;SDS011;68949;53.176;18.088;2024-03-02T00:36:22;56.40;;;23.40;;
79487;SDS011;68949;53.176;18.088;2024-03-02T00:38:52;58.90;;;27.30;;
79487;SDS011;68949;53.176;18.088;2024-03-02T00:41:30;60.90;;;25.70;;
79487;SDS011;68949;53.176;18.088;2024-03-02T00:44:05;55.00;;;23.20;;
79487;SDS011;68949;53.176;18.088;2024-03-02T00:46:35;58.00;;;26.40;;
79487;SDS011;68949;53.176;18.088;2024-03-02T00:49:05;57.40;;;24.60;;
79487;SDS011;68949;53.176;18.088;2024-03-02T00:51:39;62.90;;;26.40;;
79487;SDS011;68949;53.176;18.088;2024-03-02T00:54:09;58.70;;;26.20;;
79487;SDS011;68949;53.176;18.088;2024-03-02T00:56:36;59.60;;;25.90;;
79487;SDS011;68949;53.176;18.088;2024-03-02T00:59:04;61.60;;;27.90;;
79487;SDS011;68949;53.176;18.088;2024-03-02T01:01:30;55.40;;;23.60;;
79487;SDS011;68949;53.176;18.088;2024-03-02T01:03:59;57.40;;;24.80;;
79487;SDS011;68949;53.176;18.088;2024-03-02T01:06:26;56.20;;;25.20;;
79487;SDS011;68949;53.176;18.088;2024-03-02T01:08:54;55.30;;;24.20;;
79487;SDS011;68949;53.176;18.088;2024-03-02T01:11:20;50.90;;;22.50;;
79487;SDS011;68949;53.176;18.088;2024-03-02T01:13:51;54.00;;;23.70;;
79487;SDS011;68949;53.176;18.088;2024-03-02T01:16:18;51.00;;;22.10;;
79487;SDS011;68949;53.176;18.088;2024-03-02T01:18:45;56.50;;;24.60;;
79487;SDS011;68949;53.176;18.088;2024-03-02T01:21:12;58.90;;;26.60;;
79487;SDS011;68949;53.176;18.088;2024-03-02T01:23:39;54.50;;;25.50;;
79487;SDS011;68949;53.176;18.088;2024-03-02T01:26:06;67.50;;;26.30;;
79487;SDS011;68949;53.176;18.088;2024-03-02T01:28:33;56.60;;;24.70;;
79487;SDS011;68949;53.176;18.088;2024-03-02T01:31:00;54.50;;;24.20;;
79487;SDS011;68949;53.176;18.088;2024-03-02T01:33:28;55.80;;;23.10;;
79487;SDS011;68949;53.176;18.088;2024-03-02T01:35:55;55.50;;;23.80;;
79487;SDS011;68949;53.176;18.088;2024-03-02T01:38:22;56.50;;;24.10;;
79487;SDS011;68949;53.176;18.088;2024-03-02T01:40:48;48.90;;;22.60;;
79487;SDS011;68949;53.176;18.088;2024-03-02T01:43:15;48.70;;;22.40;;
79487;SDS011;68949;53.176;18.088;2024-03-02T01:45:42;49.90;;;23.80;;
79487;SDS011;68949;53.176;18.088;2024-03-02T01:48:09;50.70;;;21.40;;
79487;SDS011;68949;53.176;18.088;2024-03-02T01:50:35;51.00;;;21.30;;
79487;SDS011;68949;53.176;18.088;2024-03-02T01:53:02;48.20;;;21.50;;
79487;SDS011;68949;53.176;18.088;2024-03-02T01:55:29;50.40;;;22.00;;
79487;SDS011;68949;53.176;18.088;2024-03-02T01:57:57;48.90;;;21.90;;
79487;SDS011;68949;53.176;18.088;2024-03-02T02:00:24;50.60;;;22.60;;
79487;SDS011;68949;53.176;18.088;2024-03-02T02:02:53;56.90;;;24.50;;
79487;SDS011;68949;53.176;18.088;2024-03-02T02:05:21;50.70;;;21.10;;
79487;SDS011;68949;53.176;18.088;2024-03-02T02:07:48;48.10;;;21.60;;
79487;SDS011;68949;53.176;18.088;2024-03-02T02:10:15;48.70;;;21.60;;
79487;SDS011;68949;53.176;18.088;2024-03-02T02:12:42;48.00;;;22.50;;
79487;SDS011;68949;53.176;18.088;2024-03-02T02:15:23;53.50;;;22.60;;
79487;SDS011;68949;53.176;18.088;2024-03-02T02:17:57;46.20;;;21.10;;
79487;SDS011;68949;53.176;18.088;2024-03-02T02:20:25;49.60;;;20.90;;
79487;SDS011;68949;53.176;18.088;2024-03-02T02:22:57;42.60;;;20.60;;
79487;SDS011;68949;53.176;18.088;2024-03-02T02:25:25;47.30;;;21.10;;
79487;SDS011;68949;53.176;18.088;2024-03-02T02:27:54;43.40;;;18.80;;
79487;SDS011;68949;53.176;18.088;2024-03-02T02:30:27;43.10;;;20.00;;
79487;SDS011;68949;53.176;18.088;2024-03-02T02:32:56;41.10;;;19.50;;
79487;SDS011;68949;53.176;18.088;2024-03-02T02:35:23;42.00;;;18.30;;
79487;SDS011;68949;53.176;18.088;2024-03-02T02:37:54;44.50;;;20.00;;
79487;SDS011;68949;53.176;18.088;2024-03-02T02:40:23;46.90;;;20.10;;
79487;SDS011;68949;53.176;18.088;2024-03-02T02:42:50;46.60;;;19.70;;
79487;SDS011;68949;53.176;18.088;2024-03-02T02:45:18;42.30;;;19.10;;
79487;SDS011;68949;53.176;18.088;2024-03-02T02:47:46;49.40;;;20.00;;
79487;SDS011;68949;53.176;18.088;2024-03-02T02:50:14;41.00;;;17.80;;
79487;SDS011;68949;53.176;18.088;2024-03-02T02:52:42;42.80;;;19.20;;
79487;SDS011;68949;53.176;18.088;2024-03-02T02:55:11;46.20;;;19.40;;
79487;SDS011;68949;53.176;18.088;2024-03-02T02:57:42;37.50;;;17.50;;
79487;SDS011;68949;53.176;18.088;2024-03-02T03:00:15;36.80;;;16.50;;
79487;SDS011;68949;53.176;18.088;2024-03-02T03:02:47;39.10;;;18.40;;
79487;SDS011;68949;53.176;18.088;2024-03-02T03:05:15;38.00;;;17.20;;
79487;SDS011;68949;53.176;18.088;2024-03-02T03:07:43;37.50;;;18.00;;
79487;SDS011;68949;53.176;18.088;2024-03-02T03:10:11;37.80;;;16.20;;
79487;SDS011;68949;53.176;18.088;2024-03-02T03:12:37;41.40;;;18.30;;
79487;SDS011;68949;53.176;18.088;2024-03-02T03:15:04;39.10;;;17.90;;
79487;SDS011;68949;53.176;18.088;2024-03-02T03:17:33;35.80;;;16.40;;
79487;SDS011;68949;53.176;18.088;2024-03-02T03:20:02;35.10;;;16.40;;
79487;SDS011;68949;53.176;18.088;2024-03-02T03:22:30;39.80;;;18.60;;
79487;SDS011;68949;53.176;18.088;2024-03-02T03:25:01;41.00;;;18.60;;
79487;SDS011;68949;53.176;18.088;2024-03-02T03:27:31;36.70;;;16.10;;
79487;SDS011;68949;53.176;18.088;2024-03-02T03:29:59;35.20;;;16.00;;
79487;SDS011;68949;53.176;18.088;2024-03-02T03:32:26;36.80;;;16.60;;
79487;SDS011;68949;53.176;18.088;2024-03-02T03:34:54;35.00;;;16.70;;
79487;SDS011;68949;53.176;18.088;2024-03-02T03:37:22;33.40;;;16.40;;
79487;SDS011;68949;53.176;18.088;2024-03-02T03:39:51;32.90;;;16.50;;
79487;SDS011;68949;53.176;18.088;2024-03-02T03:42:20;37.30;;;17.60;;
79487;SDS011;68949;53.176;18.088;2024-03-02T03:44:47;28.90;;;14.30;;
79487;SDS011;68949;53.176;18.088;2024-03-02T03:47:13;36.00;;;15.90;;
79487;SDS011;68949;53.176;18.088;2024-03-02T03:49:40;35.60;;;16.60;;
79487;SDS011;68949;53.176;18.088;2024-03-02T03:52:07;32.60;;;14.80;;
79487;SDS011;68949;53.176;18.088;2024-03-02T03:54:35;33.20;;;16.20;;
79487;SDS011;68949;53.176;18.088;2024-03-02T03:57:04;32.70;;;16.10;;
79487;SDS011;68949;53.176;18.088;2024-03-02T03:59:31;35.40;;;16.20;;
79487;SDS011;68949;53.176;18.088;2024-03-02T04:01:58;33.40;;;16.90;;
79487;SDS011;68949;53.176;18.088;2024-03-02T04:04:24;36.70;;;16.30;;
79487;SDS011;68949;53.176;18.088;2024-03-02T04:06:51;35.50;;;15.90;;
79487;SDS011;68949;53.176;18.088;2024-03-02T04:09:18;32.20;;;15.20;;
79487;SDS011;68949;53.176;18.088;2024-03-02T04:11:45;31.50;;;15.60;;
79487;SDS011;68949;53.176;18.088;2024-03-02T04:14:12;30.00;;;15.70;;
79487;SDS011;68949;53.176;18.088;2024-03-02T04:16:39;30.90;;;16.80;;
79487;SDS011;68949;53.176;18.088;2024-03-02T04:19:06;28.90;;;13.60;;
79487;SDS011;68949;53.176;18.088;2024-03-02T04:21:34;33.50;;;16.10;;
79487;SDS011;68949;53.176;18.088;2024-03-02T04:24:02;31.00;;;13.70;;
79487;SDS011;68949;53.176;18.088;2024-03-02T04:26:28;30.20;;;14.70;;
79487;SDS011;68949;53.176;18.088;2024-03-02T04:28:55;34.90;;;17.50;;
79487;SDS011;68949;53.176;18.088;2024-03-02T04:31:22;27.70;;;14.80;;
79487;SDS011;68949;53.176;18.088;2024-03-02T04:33:49;28.90;;;13.50;;
79487;SDS011;68949;53.176;18.088;2024-03-02T04:36:16;26.30;;;13.10;;
79487;SDS011;68949;53.176;18.088;2024-03-02T04:38:43;28.10;;;14.50;;
79487;SDS011;68949;53.176;18.088;2024-03-02T04:41:11;27.00;;;13.50;;
79487;SDS011;68949;53.176;18.088;2024-03-02T04:43:41;26.60;;;13.80;;
79487;SDS011;68949;53.176;18.088;2024-03-02T04:46:07;29.20;;;15.00;;
79487;SDS011;68949;53.176;18.088;2024-03-02T04:48:34;24.70;;;12.80;;
79487;SDS011;68949;53.176;18.088;2024-03-02T04:51:03;30.40;;;15.10;;
79487;SDS011;68949;53.176;18.088;2024-03-02T04:53:32;29.90;;;13.80;;
79487;SDS011;68949;53.176;18.088;2024-03-02T04:56:00;32.00;;;14.70;;
79487;SDS011;68949;53.176;18.088;2024-03-02T04:58:48;28.40;;;13.90;;
79487;SDS011;68949;53.176;18.088;2024-03-02T05:01:15;30.70;;;15.70;;
79487;SDS011;68949;53.176;18.088;2024-03-02T05:03:45;26.00;;;12.70;;
79487;SDS011;68949;53.176;18.088;2024-03-02T05:06:13;33.90;;;16.30;;
79487;SDS011;68949;53.176;18.088;2024-03-02T05:08:42;33.00;;;16.60;;
79487;SDS011;68949;53.176;18.088;2024-03-02T05:11:11;33.80;;;17.20;;
79487;SDS011;68949;53.176;18.088;2024-03-02T05:13:57;31.60;;;15.30;;
79487;SDS011;68949;53.176;18.088;2024-03-02T05:16:24;31.50;;;16.80;;
79487;SDS011;68949;53.176;18.088;2024-03-02T05:18:52;32.80;;;16.80;;
79487;SDS011;68949;53.176;18.088;2024-03-02T05:21:19;32.30;;;15.80;;
79487;SDS011;68949;53.176;18.088;2024-03-02T05:23:45;30.40;;;14.90;;
79487;SDS011;68949;53.176;18.088;2024-03-02T05:26:12;28.60;;;15.40;;
79487;SDS011;68949;53.176;18.088;2024-03-02T05:28:39;30.10;;;16.20;;
79487;SDS011;68949;53.176;18.088;2024-03-02T05:31:06;28.80;;;14.80;;
79487;SDS011;68949;53.176;18.088;2024-03-02T05:33:33;29.60;;;15.30;;
79487;SDS011;68949;53.176;18.088;2024-03-02T05:36:00;31.10;;;15.70;;
79487;SDS011;68949;53.176;18.088;2024-03-02T05:38:28;30.30;;;15.60;;
79487;SDS011;68949;53.176;18.088;2024-03-02T05:40:55;27.60;;;14.30;;
79487;SDS011;68949;53.176;18.088;2024-03-02T05:43:21;31.90;;;15.40;;
79487;SDS011;68949;53.176;18.088;2024-03-02T05:45:48;32.70;;;16.30;;
79487;SDS011;68949;53.176;18.088;2024-03-02T05:48:15;28.20;;;13.70;;
79487;SDS011;68949;53.176;18.088;2024-03-02T05:50:42;28.40;;;15.20;;
79487;SDS011;68949;53.176;18.088;2024-03-02T05:53:09;30.20;;;16.10;;
79487;SDS011;68949;53.176;18.088;2024-03-02T05:55:36;33.50;;;16.00;;
79487;SDS011;68949;53.176;18.088;2024-03-02T05:58:03;31.50;;;15.90;;
79487;SDS011;68949;53.176;18.088;2024-03-02T06:00:33;29.90;;;15.30;;
79487;SDS011;68949;53.176;18.088;2024-03-02T06:02:59;32.50;;;16.30;;
79487;SDS011;68949;53.176;18.088;2024-03-02T06:05:26;28.40;;;14.70;;
79487;SDS011;68949;53.176;18.088;2024-03-02T06:07:53;32.20;;;16.40;;
79487;SDS011;68949;53.176;18.088;2024-03-02T06:10:20;33.00;;;17.30;;
79487;SDS011;68949;53.176;18.088;2024-03-02T06:12:47;29.40;;;15.20;;
79487;SDS011;68949;53.176;18.088;2024-03-02T06:15:14;29.90;;;15.30;;
79487;SDS011;68949;53.176;18.088;2024-03-02T06:17:40;33.40;;;16.50;;
79487;SDS011;68949;53.176;18.088;2024-03-02T06:20:07;29.70;;;15.60;;
79487;SDS011;68949;53.176;18.088;2024-03-02T06:22:35;31.60;;;15.90;;
79487;SDS011;68949;53.176;18.088;2024-03-02T06:25:02;33.90;;;17.20;;
79487;SDS011;68949;53.176;18.088;2024-03-02T06:27:29;35.80;;;17.30;;
79487;SDS011;68949;53.176;18.088;2024-03-02T06:29:55;31.10;;;15.90;;
79487;SDS011;68949;53.176;18.088;2024-03-02T06:32:22;32.60;;;16.60;;
79487;SDS011;68949;53.176;18.088;2024-03-02T06:34:51;33.60;;;16.50;;
79487;SDS011;68949;53.176;18.088;2024-03-02T06:37:18;29.90;;;15.30;;
79487;SDS011;68949;53.176;18.088;2024-03-02T06:39:45;34.30;;;17.30;;
79487;SDS011;68949;53.176;18.088;2024-03-02T06:42:11;32.20;;;16.20;;
79487;SDS011;68949;53.176;18.088;2024-03-02T06:44:38;30.00;;;15.90;;
79487;SDS011;68949;53.176;18.088;2024-03-02T06:47:05;33.10;;;17.20;;
79487;SDS011;68949;53.176;18.088;2024-03-02T06:49:33;29.30;;;14.60;;
79487;SDS011;68949;53.176;18.088;2024-03-02T06:52:00;33.00;;;14.90;;
79487;SDS011;68949;53.176;18.088;2024-03-02T06:54:27;29.60;;;15.50;;
79487;SDS011;68949;53.176;18.088;2024-03-02T06:56:54;32.40;;;16.10;;
79487;SDS011;68949;53.176;18.088;2024-03-02T06:59:20;31.00;;;16.30;;
79487;SDS011;68949;53.176;18.088;2024-03-02T07:01:47;33.10;;;15.30;;
79487;SDS011;68949;53.176;18.088;2024-03-02T07:04:15;29.80;;;15.00;;
79487;SDS011;68949;53.176;18.088;2024-03-02T07:06:42;30.40;;;16.10;;
79487;SDS011;68949;53.176;18.088;2024-03-02T07:09:09;31.50;;;16.60;;
79487;SDS011;68949;53.176;18.088;2024-03-02T07:11:37;27.60;;;13.90;;
79487;SDS011;68949;53.176;18.088;2024-03-02T07:14:05;28.80;;;15.10;;
79487;SDS011;68949;53.176;18.088;2024-03-02T07:16:32;29.70;;;15.90;;
79487;SDS011;68949;53.176;18.088;2024-03-02T07:19:01;32.80;;;16.30;;
79487;SDS011;68949;53.176;18.088;2024-03-02T07:21:31;34.00;;;17.40;;
79487;SDS011;68949;53.176;18.088;2024-03-02T07:23:59;33.60;;;16.20;;
79487;SDS011;68949;53.176;18.088;2024-03-02T07:26:27;30.60;;;14.90;;
79487;SDS011;68949;53.176;18.088;2024-03-02T07:28:53;29.00;;;15.00;;
79487;SDS011;68949;53.176;18.088;2024-03-02T07:31:21;31.20;;;15.40;;
79487;SDS011;68949;53.176;18.088;2024-03-02T07:33:48;31.90;;;16.20;;
79487;SDS011;68949;53.176;18.088;2024-03-02T07:36:15;34.50;;;15.90;;
79487;SDS011;68949;53.176;18.088;2024-03-02T07:38:42;31.00;;;15.80;;
79487;SDS011;68949;53.176;18.088;2024-03-02T07:41:10;36.00;;;18.60;;
79487;SDS011;68949;53.176;18.088;2024-03-02T07:43:38;34.30;;;16.70;;
79487;SDS011;68949;53.176;18.088;2024-03-02T07:46:05;33.20;;;15.50;;
79487;SDS011;68949;53.176;18.088;2024-03-02T07:48:32;34.20;;;18.00;;
79487;SDS011;68949;53.176;18.088;2024-03-02T07:50:59;32.20;;;16.40;;
79487;SDS011;68949;53.176;18.088;2024-03-02T07:53:26;31.40;;;16.40;;
79487;SDS011;68949;53.176;18.088;2024-03-02T07:55:53;32.10;;;16.40;;
79487;SDS011;68949;53.176;18.088;2024-03-02T07:58:20;31.60;;;17.40;;
79487;SDS011;68949;53.176;18.088;2024-03-02T08:00:47;36.60;;;17.50;;
79487;SDS011;68949;53.176;18.088;2024-03-02T08:03:14;34.10;;;17.60;;
79487;SDS011;68949;53.176;18.088;2024-03-02T08:05:41;30.60;;;16.90;;
79487;SDS011;68949;53.176;18.088;2024-03-02T08:08:08;31.90;;;17.10;;
79487;SDS011;68949;53.176;18.088;2024-03-02T08:10:35;33.60;;;17.20;;
79487;SDS011;68949;53.176;18.088;2024-03-02T08:13:02;32.70;;;17.10;;
79487;SDS011;68949;53.176;18.088;2024-03-02T08:15:29;31.00;;;15.70;;
79487;SDS011;68949;53.176;18.088;2024-03-02T08:17:55;35.60;;;17.10;;
79487;SDS011;68949;53.176;18.088;2024-03-02T08:20:22;30.20;;;16.20;;
79487;SDS011;68949;53.176;18.088;2024-03-02T08:22:49;34.80;;;17.20;;
79487;SDS011;68949;53.176;18.088;2024-03-02T08:25:17;30.20;;;16.00;;
79487;SDS011;68949;53.176;18.088;2024-03-02T08:27:44;30.80;;;15.80;;
79487;SDS011;68949;53.176;18.088;2024-03-02T08:30:11;32.40;;;15.90;;
79487;SDS011;68949;53.176;18.088;2024-03-02T08:32:39;32.10;;;16.90;;
79487;SDS011;68949;53.176;18.088;2024-03-02T08:35:07;35.40;;;19.10;;
79487;SDS011;68949;53.176;18.088;2024-03-02T08:37:33;33.80;;;18.10;;
79487;SDS011;68949;53.176;18.088;2024-03-02T08:40:00;32.70;;;16.90;;
79487;SDS011;68949;53.176;18.088;2024-03-02T08:42:27;31.90;;;17.20;;
79487;SDS011;68949;53.176;18.088;2024-03-02T08:44:55;29.10;;;16.70;;
79487;SDS011;68949;53.176;18.088;2024-03-02T08:47:22;32.90;;;17.30;;
79487;SDS011;68949;53.176;18.088;2024-03-02T08:49:49;31.10;;;16.40;;
79487;SDS011;68949;53.176;18.088;2024-03-02T08:52:16;33.10;;;16.60;;
79487;SDS011;68949;53.176;18.088;2024-03-02T08:54:44;35.90;;;16.60;;
79487;SDS011;68949;53.176;18.088;2024-03-02T08:57:10;27.90;;;15.60;;
79487;SDS011;68949;53.176;18.088;2024-03-02T08:59:37;33.90;;;17.80;;
79487;SDS011;68949;53.176;18.088;2024-03-02T09:02:04;33.60;;;17.00;;
79487;SDS011;68949;53.176;18.088;2024-03-02T09:04:31;32.30;;;17.80;;
79487;SDS011;68949;53.176;18.088;2024-03-02T09:06:57;30.90;;;16.30;;
79487;SDS011;68949;53.176;18.088;2024-03-02T09:09:24;32.80;;;16.70;;
79487;SDS011;68949;53.176;18.088;2024-03-02T09:11:51;29.90;;;15.00;;
79487;SDS011;68949;53.176;18.088;2024-03-02T09:14:17;29.00;;;15.50;;
79487;SDS011;68949;53.176;18.088;2024-03-02T09:16:44;29.50;;;16.40;;
79487;SDS011;68949;53.176;18.088;2024-03-02T09:19:11;35.30;;;17.10;;
79487;SDS011;68949;53.176;18.088;2024-03-02T09:21:37;31.90;;;16.40;;
79487;SDS011;68949;53.176;18.088;2024-03-02T09:24:04;32.10;;;16.50;;
79487;SDS011;68949;53.176;18.088;2024-03-02T09:26:33;39.50;;;18.10;;
79487;SDS011;68949;53.176;18.088;2024-03-02T09:29:00;32.90;;;17.70;;
79487;SDS011;68949;53.176;18.088;2024-03-02T09:31:28;31.40;;;16.60;;
79487;SDS011;68949;53.176;18.088;2024-03-02T09:33:57;32.60;;;17.30;;
79487;SDS011;68949;53.176;18.088;2024-03-02T09:36:24;30.40;;;16.70;;
79487;SDS011;68949;53.176;18.088;2024-03-02T09:38:51;30.30;;;16.30;;
79487;SDS011;68949;53.176;18.088;2024-03-02T09:41:18;28.20;;;15.70;;
79487;SDS011;68949;53.176;18.088;2024-03-02T09:43:48;32.90;;;16.90;;
79487;SDS011;68949;53.176;18.088;2024-03-02T09:46:15;29.90;;;16.30;;
79487;SDS011;68949;53.176;18.088;2024-03-02T09:48:44;30.40;;;17.30;;
79487;SDS011;68949;53.176;18.088;2024-03-02T09:51:11;30.40;;;16.30;;
79487;SDS011;68949;53.176;18.088;2024-03-02T09:53:41;34.00;;;16.00;;
79487;SDS011;68949;53.176;18.088;2024-03-02T09:56:09;30.70;;;16.90;;
79487;SDS011;68949;53.176;18.088;2024-03-02T09:58:36;28.80;;;15.80;;
79487;SDS011;68949;53.176;18.088;2024-03-02T10:01:05;31.00;;;16.70;;
79487;SDS011;68949;53.176;18.088;2024-03-02T10:03:33;26.70;;;14.80;;
79487;SDS011;68949;53.176;18.088;2024-03-02T10:06:20;33.50;;;16.60;;
79487;SDS011;68949;53.176;18.088;2024-03-02T10:08:52;29.90;;;15.60;;
79487;SDS011;68949;53.176;18.088;2024-03-02T10:11:32;29.00;;;14.80;;
79487;SDS011;68949;53.176;18.088;2024-03-02T10:14:11;30.50;;;15.80;;
79487;SDS011;68949;53.176;18.088;2024-03-02T10:16:41;30.60;;;16.30;;
79487;SDS011;68949;53.176;18.088;2024-03-02T10:19:15;32.30;;;16.80;;
79487;SDS011;68949;53.176;18.088;2024-03-02T10:21:51;32.60;;;17.20;;
79487;SDS011;68949;53.176;18.088;2024-03-02T10:24:20;32.10;;;17.50;;
79487;SDS011;68949;53.176;18.088;2024-03-02T10:26:49;30.30;;;16.60;;
79487;SDS011;68949;53.176;18.088;2024-03-02T10:29:17;31.50;;;16.00;;
79487;SDS011;68949;53.176;18.088;2024-03-02T10:31:46;29.30;;;16.00;;
79487;SDS011;68949;53.176;18.088;2024-03-02T10:34:13;27.60;;;13.80;;
79487;SDS011;68949;53.176;18.088;2024-03-02T10:36:43;26.00;;;13.80;;
79487;SDS011;68949;53.176;18.088;2024-03-02T10:39:12;27.10;;;14.80;;
79487;SDS011;68949;53.176;18.088;2024-03-02T10:41:40;33.00;;;16.60;;
79487;SDS011;68949;53.176;18.088;2024-03-02T10:44:09;21.90;;;11.90;;
79487;SDS011;68949;53.176;18.088;2024-03-02T10:46:37;29.10;;;16.50;;
79487;SDS011;68949;53.176;18.088;2024-03-02T10:49:05;26.70;;;15.40;;
79487;SDS011;68949;53.176;18.088;2024-03-02T10:51:33;28.90;;;16.00;;
79487;SDS011;68949;53.176;18.088;2024-03-02T10:54:04;24.60;;;13.00;;
79487;SDS011;68949;53.176;18.088;2024-03-02T10:56:33;28.10;;;14.90;;
79487;SDS011;68949;53.176;18.088;2024-03-02T10:59:28;27.10;;;14.90;;
79487;SDS011;68949;53.176;18.088;2024-03-02T11:02:01;28.60;;;16.20;;
79487;SDS011;68949;53.176;18.088;2024-03-02T11:04:30;31.80;;;17.20;;
79487;SDS011;68949;53.176;18.088;2024-03-02T11:07:06;30.40;;;16.60;;
79487;SDS011;68949;53.176;18.088;2024-03-02T11:09:37;28.00;;;16.00;;
79487;SDS011;68949;53.176;18.088;2024-03-02T11:12:23;30.50;;;16.10;;
79487;SDS011;68949;53.176;18.088;2024-03-02T11:15:10;30.50;;;17.30;;
79487;SDS011;68949;53.176;18.088;2024-03-02T11:17:40;25.80;;;14.00;;
79487;SDS011;68949;53.176;18.088;2024-03-02T11:20:08;28.60;;;14.30;;
79487;SDS011;68949;53.176;18.088;2024-03-02T11:22:36;29.90;;;16.40;;
79487;SDS011;68949;53.176;18.088;2024-03-02T11:25:03;29.20;;;16.10;;
79487;SDS011;68949;53.176;18.088;2024-03-02T11:33:02;27.10;;;15.00;;
79487;SDS011;68949;53.176;18.088;2024-03-02T11:35:37;29.70;;;16.30;;
79487;SDS011;68949;53.176;18.088;2024-03-02T11:38:15;27.80;;;15.00;;
79487;SDS011;68949;53.176;18.088;2024-03-02T11:40:42;31.50;;;18.30;;
79487;SDS011;68949;53.176;18.088;2024-03-02T11:43:09;29.00;;;16.20;;
79487;SDS011;68949;53.176;18.088;2024-03-02T11:45:37;31.80;;;17.30;;
79487;SDS011;68949;53.176;18.088;2024-03-02T11:48:11;30.20;;;16.20;;
79487;SDS011;68949;53.176;18.088;2024-03-02T11:50:46;28.00;;;16.50;;
79487;SDS011;68949;53.176;18.088;2024-03-02T11:53:16;29.60;;;16.40;;
79487;SDS011;68949;53.176;18.088;2024-03-02T11:55:45;27.80;;;15.80;;
79487;SDS011;68949;53.176;18.088;2024-03-02T11:58:16;31.20;;;17.20;;
79487;SDS011;68949;53.176;18.088;2024-03-02T12:00:44;25.30;;;14.10;;
79487;SDS011;68949;53.176;18.088;2024-03-02T12:03:14;31.00;;;16.90;;
79487;SDS011;68949;53.176;18.088;2024-03-02T12:05:42;32.10;;;17.60;;
79487;SDS011;68949;53.176;18.088;2024-03-02T12:08:14;31.60;;;18.40;;
79487;SDS011;68949;53.176;18.088;2024-03-02T12:10:43;32.90;;;16.30;;
79487;SDS011;68949;53.176;18.088;2024-03-02T12:13:25;25.20;;;13.60;;
79487;SDS011;68949;53.176;18.088;2024-03-02T12:15:54;28.70;;;14.90;;
79487;SDS011;68949;53.176;18.088;2024-03-02T12:18:22;27.70;;;14.60;;
79487;SDS011;68949;53.176;18.088;2024-03-02T12:20:51;29.30;;;16.00;;
79487;SDS011;68949;53.176;18.088;2024-03-02T12:23:24;30.90;;;16.90;;
79487;SDS011;68949;53.176;18.088;2024-03-02T12:25:52;29.00;;;15.70;;
79487;SDS011;68949;53.176;18.088;2024-03-02T12:28:19;28.90;;;15.60;;
79487;SDS011;68949;53.176;18.088;2024-03-02T12:30:46;29.20;;;16.60;;
79487;SDS011;68949;53.176;18.088;2024-03-02T12:33:14;28.80;;;16.20;;
79487;SDS011;68949;53.176;18.088;2024-03-02T12:35:41;29.90;;;15.70;;
79487;SDS011;68949;53.176;18.088;2024-03-02T12:38:09;32.30;;;17.40;;
79487;SDS011;68949;53.176;18.088;2024-03-02T12:40:37;28.80;;;15.50;;
79487;SDS011;68949;53.176;18.088;2024-03-02T12:43:05;34.80;;;19.40;;
79487;SDS011;68949;53.176;18.088;2024-03-02T12:45:34;38.70;;;21.90;;
79487;SDS011;68949;53.176;18.088;2024-03-02T12:48:01;37.80;;;20.10;;
79487;SDS011;68949;53.176;18.088;2024-03-02T12:50:30;35.40;;;19.20;;
79487;SDS011;68949;53.176;18.088;2024-03-02T12:52:57;36.10;;;18.60;;
79487;SDS011;68949;53.176;18.088;2024-03-02T12:55:24;40.90;;;21.50;;
79487;SDS011;68949;53.176;18.088;2024-03-02T12:57:52;40.30;;;22.00;;
79487;SDS011;68949;53.176;18.088;2024-03-02T13:00:20;37.80;;;20.60;;
79487;SDS011;68949;53.176;18.088;2024-03-02T13:02:48;35.50;;;20.50;;
79487;SDS011;68949;53.176;18.088;2024-03-02T13:05:17;39.20;;;21.80;;
79487;SDS011;68949;53.176;18.088;2024-03-02T13:07:47;37.50;;;21.60;;
79487;SDS011;68949;53.176;18.088;2024-03-02T13:10:15;37.40;;;20.20;;
79487;SDS011;68949;53.176;18.088;2024-03-02T13:12:41;50.00;;;24.10;;
79487;SDS011;68949;53.176;18.088;2024-03-02T13:15:08;45.20;;;23.60;;
79487;SDS011;68949;53.176;18.088;2024-03-02T13:17:36;45.30;;;22.30;;
79487;SDS011;68949;53.176;18.088;2024-03-02T13:20:05;44.00;;;22.40;;
79487;SDS011;68949;53.176;18.088;2024-03-02T13:22:37;47.10;;;24.40;;
79487;SDS011;68949;53.176;18.088;2024-03-02T13:25:04;41.70;;;21.30;;
79487;SDS011;68949;53.176;18.088;2024-03-02T13:27:33;45.50;;;20.70;;
79487;SDS011;68949;53.176;18.088;2024-03-02T13:30:02;47.00;;;24.30;;
79487;SDS011;68949;53.176;18.088;2024-03-02T13:32:29;46.40;;;23.60;;
79487;SDS011;68949;53.176;18.088;2024-03-02T13:34:56;46.70;;;24.30;;
79487;SDS011;68949;53.176;18.088;2024-03-02T13:37:23;49.70;;;24.50;;
79487;SDS011;68949;53.176;18.088;2024-03-02T13:39:50;44.70;;;22.80;;
79487;SDS011;68949;53.176;18.088;2024-03-02T13:42:17;50.70;;;24.30;;
79487;SDS011;68949;53.176;18.088;2024-03-02T13:44:44;50.30;;;24.20;;
79487;SDS011;68949;53.176;18.088;2024-03-02T13:47:13;43.90;;;22.40;;
79487;SDS011;68949;53.176;18.088;2024-03-02T13:49:42;49.40;;;25.80;;
79487;SDS011;68949;53.176;18.088;2024-03-02T13:52:13;46.10;;;24.90;;
79487;SDS011;68949;53.176;18.088;2024-03-02T13:54:40;42.20;;;21.60;;
79487;SDS011;68949;53.176;18.088;2024-03-02T13:57:09;51.20;;;25.60;;
79487;SDS011;68949;53.176;18.088;2024-03-02T13:59:37;53.10;;;23.80;;
79487;SDS011;68949;53.176;18.088;2024-03-02T14:02:05;42.40;;;19.40;;
79487;SDS011;68949;53.176;18.088;2024-03-02T14:04:35;48.00;;;22.20;;
79487;SDS011;68949;53.176;18.088;2024-03-02T14:07:03;48.10;;;26.30;;
79487;SDS011;68949;53.176;18.088;2024-03-02T14:09:31;47.40;;;23.10;;
79487;SDS011;68949;53.176;18.088;2024-03-02T14:11:58;41.30;;;22.10;;
79487;SDS011;68949;53.176;18.088;2024-03-02T14:14:27;49.00;;;23.50;;
79487;SDS011;68949;53.176;18.088;2024-03-02T14:16:57;42.20;;;21.80;;
79487;SDS011;68949;53.176;18.088;2024-03-02T14:19:32;43.20;;;21.50;;
79487;SDS011;68949;53.176;18.088;2024-03-02T14:21:59;47.70;;;22.30;;